Time;durP1;ratioP1;P1;durP2;ratioP2;P2;SDS_P1;SDS_P2;PMS_P1;PMS_P2;Temp;Humidity;BMP_temperature;BMP_pressure;BME280_temperature;BME280_humidity;BME280_pressure;Samples;Min_cycle;Max_cycle;Signal;HPM_P1;HPM_P2
2022/01/14 00:00:06;;;;;;;7.78;5.40;;;14.10;48.40;13.10;103230.00;;;;4933945;28;20057;-81
2022/01/14 00:02:52;;;;;;;10.95;6.78;;;14.10;48.40;13.10;103224.00;;;;4935351;28;20591;-82
2022/01/14 00:05:38;;;;;;;8.80;5.47;;;14.10;48.40;13.10;103234.00;;;;4945492;28;20061;-81
2022/01/14 00:08:24;;;;;;;9.25;5.75;;;14.10;48.50;13.10;103234.00;;;;4944728;28;20042;-81
2022/01/14 00:11:15;;;;;;;8.27;5.40;;;14.00;48.40;13.10;103227.00;;;;4934534;28;20109;-81
2022/01/14 00:16:52;;;;;;;9.38;6.22;;;14.10;48.40;13.10;103225.00;;;;4946678;28;20138;-81
2022/01/14 00:19:39;;;;;;;7.83;5.33;;;14.10;48.40;13.10;103230.00;;;;4936300;28;20491;-81
2022/01/14 00:22:27;;;;;;;9.05;5.97;;;14.10;48.40;13.10;103231.00;;;;4929955;28;20049;-81
2022/01/14 00:34:45;;;;;;;7.85;6.10;;;14.10;48.40;13.10;103199.00;;;;4881285;29;20162;-81
2022/01/14 00:37:31;;;;;;;9.73;5.80;;;14.10;48.40;13.10;103194.00;;;;4947868;28;20049;-81
2022/01/14 00:40:17;;;;;;;10.35;6.78;;;14.10;48.40;13.10;103188.00;;;;4936004;28;20046;-81
2022/01/14 00:43:04;;;;;;;9.50;6.40;;;14.10;48.40;13.20;103197.00;;;;4962163;28;20510;-81
2022/01/14 00:45:51;;;;;;;10.60;6.43;;;14.10;48.40;13.10;103200.00;;;;4939067;28;20078;-81
2022/01/14 00:48:38;;;;;;;8.38;5.68;;;14.10;48.40;13.10;103193.00;;;;4936648;28;20038;-81
2022/01/14 00:51:25;;;;;;;9.55;6.03;;;14.10;48.40;13.10;103204.00;;;;4934989;28;20045;-81
2022/01/14 00:54:11;;;;;;;9.23;6.05;;;14.10;48.40;13.10;103196.00;;;;4938522;28;20065;-81
2022/01/14 00:57:25;;;;;;;8.52;5.75;;;14.10;48.40;13.10;103194.00;;;;4953151;28;20626;-81
2022/01/14 01:00:08;;;;;;;11.25;6.68;;;14.10;48.40;13.10;103186.00;;;;4957299;28;20038;-81
2022/01/14 01:02:54;;;;;;;8.52;6.03;;;14.10;48.50;13.10;103173.00;;;;4937148;28;20042;-81
2022/01/14 01:05:40;;;;;;;10.15;6.28;;;14.10;48.40;13.10;103172.00;;;;4951107;28;20042;-81
2022/01/14 01:08:28;;;;;;;9.70;6.68;;;14.10;48.40;13.10;103180.00;;;;4948555;28;20411;-81
2022/01/14 01:11:24;;;;;;;9.35;6.40;;;14.10;48.40;13.10;103180.00;;;;4935001;28;20121;-81
2022/01/14 01:14:21;;;;;;;10.02;6.38;;;14.10;48.40;13.10;103179.00;;;;4936605;28;20069;-81
2022/01/14 01:17:07;;;;;;;10.00;6.55;;;14.10;48.50;13.10;103182.00;;;;4955261;28;20779;-81
2022/01/14 01:19:54;;;;;;;10.75;6.88;;;14.10;48.50;13.10;103175.00;;;;4936389;28;20049;-81
2022/01/14 01:22:40;;;;;;;10.85;7.43;;;14.00;48.40;13.10;103199.00;;;;4934784;28;20053;-81
2022/01/14 01:25:35;;;;;;;11.43;6.88;;;14.00;48.40;13.10;103193.00;;;;4946876;28;20053;-81
2022/01/14 01:28:22;;;;;;;10.23;6.63;;;14.00;48.40;13.10;103197.00;;;;4964314;28;20038;-81
2022/01/14 01:31:35;;;;;;;11.15;7.15;;;14.00;48.50;13.10;103212.00;;;;4949836;28;20038;-81
2022/01/14 01:34:24;;;;;;;10.15;6.88;;;14.00;48.50;13.10;103204.00;;;;4958653;28;20537;-81
2022/01/14 01:37:11;;;;;;;10.38;7.18;;;14.00;48.50;13.10;103209.00;;;;4935992;28;20078;-81
2022/01/14 01:39:57;;;;;;;10.07;6.63;;;14.00;48.50;13.10;103209.00;;;;4934946;28;20507;-81
2022/01/14 01:42:44;;;;;;;9.15;6.15;;;14.00;48.50;13.10;103196.00;;;;4936282;28;20579;-81
2022/01/14 01:45:31;;;;;;;11.45;7.30;;;14.00;48.50;13.10;103201.00;;;;4931921;28;20052;-81
2022/01/14 01:48:17;;;;;;;9.40;6.45;;;14.00;48.50;13.10;103198.00;;;;4959326;28;20049;-81
2022/01/14 01:51:04;;;;;;;9.73;6.78;;;14.00;48.50;13.10;103196.00;;;;4933532;28;20377;-81
2022/01/14 01:53:50;;;;;;;12.03;8.30;;;14.00;48.50;13.10;103189.00;;;;4935383;28;20533;-81
2022/01/14 01:56:37;;;;;;;10.18;6.47;;;14.00;48.50;13.10;103189.00;;;;4948971;28;20288;-81
2022/01/14 01:59:24;;;;;;;9.80;6.78;;;14.00;48.50;13.10;103179.00;;;;4944799;28;20045;-81
2022/01/14 02:02:10;;;;;;;10.53;6.50;;;14.00;48.50;13.10;103181.00;;;;4937650;28;20057;-82
2022/01/14 02:04:58;;;;;;;9.80;6.57;;;14.00;48.60;13.10;103176.00;;;;4935864;28;20050;-81
2022/01/14 02:07:45;;;;;;;11.90;7.53;;;14.00;48.60;13.10;103174.00;;;;4966823;28;20502;-82
2022/01/14 02:10:31;;;;;;;10.15;6.43;;;14.00;48.60;13.10;103182.00;;;;4948244;28;20049;-81
2022/01/14 02:13:18;;;;;;;11.57;7.60;;;14.00;48.60;13.10;103183.00;;;;4935956;28;20038;-81
2022/01/14 02:22:11;;;;;;;10.88;7.57;;;14.00;48.60;13.10;103169.00;;;;4946500;28;20121;-81
2022/01/14 02:25:03;;;;;;;11.30;7.00;;;14.00;48.60;13.10;103163.00;;;;4938164;28;20042;-81
2022/01/14 02:27:50;;;;;;;10.88;7.05;;;14.00;48.60;13.10;103163.00;;;;4934994;28;20164;-81
2022/01/14 02:30:41;;;;;;;10.77;6.95;;;14.00;48.70;13.10;103167.00;;;;4936607;28;20062;-81
2022/01/14 02:33:28;;;;;;;10.15;7.13;;;14.00;48.70;13.10;103169.00;;;;4951222;28;20096;-82
2022/01/14 02:36:14;;;;;;;11.50;7.47;;;14.00;48.70;13.10;103160.00;;;;4934582;28;20529;-81
2022/01/14 02:39:00;;;;;;;10.20;6.95;;;14.00;48.70;13.10;103148.00;;;;4927965;28;20049;-81
2022/01/14 02:41:49;;;;;;;11.38;7.43;;;14.00;48.80;13.10;103155.00;;;;4947869;28;20384;-81
2022/01/14 02:44:35;;;;;;;11.82;7.45;;;14.00;48.70;13.10;103154.00;;;;4936487;28;20406;-81
2022/01/14 02:47:21;;;;;;;12.38;7.68;;;14.00;48.70;13.10;103153.00;;;;4932655;28;20109;-81
2022/01/14 02:50:12;;;;;;;11.15;7.55;;;14.00;48.70;13.10;103137.00;;;;4936076;28;20046;-81
2022/01/14 02:53:01;;;;;;;12.20;7.30;;;14.10;48.90;13.10;103133.00;;;;4933476;28;20615;-81
2022/01/14 02:55:47;;;;;;;11.73;7.97;;;14.00;48.80;13.10;103126.00;;;;4936106;28;20136;-81
2022/01/14 02:58:35;;;;;;;13.68;7.38;;;14.10;48.80;13.10;103114.00;;;;4931999;28;20233;-81
2022/01/14 03:01:23;;;;;;;13.30;7.60;;;14.10;48.80;13.10;103099.00;;;;4936605;28;20038;-81
2022/01/14 03:04:10;;;;;;;11.98;7.38;;;14.10;48.80;13.10;103110.00;;;;4935248;28;20130;-81
2022/01/14 03:06:56;;;;;;;13.40;7.95;;;14.10;48.80;13.10;103110.00;;;;4935583;28;20046;-81
2022/01/14 03:09:42;;;;;;;13.57;8.35;;;14.10;48.80;13.10;103108.00;;;;4949494;28;20557;-81
2022/01/14 03:12:28;;;;;;;11.98;7.50;;;14.10;48.90;13.10;103112.00;;;;4947639;28;20043;-81
2022/01/14 03:15:15;;;;;;;12.48;7.93;;;14.10;48.90;13.10;103105.00;;;;4924923;28;20395;-81
2022/01/14 03:18:01;;;;;;;10.77;7.30;;;14.10;48.90;13.10;103107.00;;;;4936884;28;20553;-81
2022/01/14 03:20:49;;;;;;;14.70;8.82;;;14.00;48.80;13.10;103111.00;;;;4935041;28;20448;-81
2022/01/14 03:23:49;;;;;;;14.50;7.88;;;14.10;48.90;13.10;103113.00;;;;4949283;28;20046;-81
2022/01/14 03:26:36;;;;;;;14.13;8.98;;;14.10;49.00;13.10;103111.00;;;;4938122;28;20038;-81
2022/01/14 03:29:22;;;;;;;11.10;7.70;;;14.10;48.90;13.10;103116.00;;;;4934732;28;20034;-81
2022/01/14 03:32:08;;;;;;;12.85;6.90;;;14.10;48.90;13.10;103108.00;;;;4934488;28;20077;-81
2022/01/14 03:34:55;;;;;;;18.13;8.27;;;14.10;49.00;13.10;103098.00;;;;4940033;28;20062;-81
2022/01/14 03:37:41;;;;;;;13.98;8.40;;;14.10;49.00;13.20;103102.00;;;;4946800;28;20042;-81
2022/01/14 03:40:27;;;;;;;12.00;7.88;;;14.10;49.00;13.10;103104.00;;;;4934158;28;20042;-81
2022/01/14 03:43:13;;;;;;;16.15;9.15;;;14.10;49.70;13.20;103106.00;;;;4934810;28;20050;-81
2022/01/14 03:46:00;;;;;;;13.35;7.75;;;14.10;49.00;13.20;103110.00;;;;4935569;28;20047;-81
2022/01/14 03:48:46;;;;;;;13.75;8.00;;;14.10;49.00;13.20;103099.00;;;;4934203;28;20053;-81
2022/01/14 03:51:32;;;;;;;13.38;8.75;;;14.10;49.00;13.20;103104.00;;;;4946407;28;20062;-81
2022/01/14 03:54:18;;;;;;;15.43;8.13;;;14.10;49.10;13.20;103096.00;;;;4935298;28;20038;-81
2022/01/14 03:57:05;;;;;;;13.27;7.70;;;14.10;49.10;13.20;103084.00;;;;4956465;28;20038;-81
2022/01/14 03:59:51;;;;;;;14.07;8.13;;;14.10;49.10;13.20;103079.00;;;;4932253;28;20042;-81
2022/01/14 04:02:38;;;;;;;15.23;8.45;;;14.10;49.10;13.20;103076.00;;;;4935566;28;20133;-81
2022/01/14 04:05:24;;;;;;;14.25;7.95;;;14.10;49.10;13.20;103090.00;;;;4935820;28;20069;-81
2022/01/14 04:08:10;;;;;;;13.27;8.38;;;14.10;49.10;13.20;103078.00;;;;4936640;28;20119;-81
2022/01/14 04:10:58;;;;;;;13.77;8.25;;;14.10;49.10;13.20;103065.00;;;;4939960;28;20044;-81
2022/01/14 04:13:51;;;;;;;14.02;8.27;;;14.10;49.10;13.20;103059.00;;;;4936965;28;20048;-81
2022/01/14 04:16:37;;;;;;;15.70;9.23;;;14.10;49.20;13.20;103061.00;;;;4939568;28;20387;-81
2022/01/14 04:19:27;;;;;;;16.30;9.80;;;14.10;49.20;13.20;103067.00;;;;4943820;28;20065;-81
2022/01/14 04:22:17;;;;;;;17.05;9.65;;;14.10;49.30;13.20;103065.00;;;;4949327;28;20049;-81
2022/01/14 04:25:03;;;;;;;17.02;9.68;;;14.10;49.30;13.20;103074.00;;;;4960283;28;20050;-81
2022/01/14 04:27:52;;;;;;;18.40;10.73;;;14.10;49.30;13.20;103064.00;;;;4937373;28;20471;-81
2022/01/14 04:30:39;;;;;;;18.10;9.85;;;14.20;49.40;13.20;103063.00;;;;4947517;28;20132;-81
2022/01/14 04:33:32;;;;;;;15.93;9.18;;;14.20;49.40;13.30;103072.00;;;;4945201;28;20034;-82
2022/01/14 04:36:18;;;;;;;17.58;9.80;;;14.20;49.40;13.30;103065.00;;;;4930980;28;20053;-81
2022/01/14 04:39:08;;;;;;;20.10;10.65;;;14.20;49.30;13.30;103066.00;;;;4950415;28;20046;-81
2022/01/14 04:41:55;;;;;;;17.50;10.20;;;14.30;49.30;13.30;103064.00;;;;4933330;28;20038;-81
2022/01/14 04:44:41;;;;;;;18.58;10.00;;;14.30;49.30;13.30;103065.00;;;;4936673;28;20046;-81
2022/01/14 04:47:33;;;;;;;17.20;9.65;;;14.30;49.30;13.30;103056.00;;;;4937398;28;20077;-81
2022/01/14 04:50:21;;;;;;;18.38;10.15;;;14.40;49.20;13.40;103063.00;;;;4948447;28;20061;-81
2022/01/14 04:53:11;;;;;;;18.73;10.68;;;14.40;49.20;13.40;103051.00;;;;4935229;28;20506;-81
2022/01/14 04:55:57;;;;;;;16.58;10.30;;;14.40;49.20;13.40;103064.00;;;;4938299;28;20042;-81
2022/01/14 04:58:43;;;;;;;19.92;10.30;;;14.40;49.10;13.40;103066.00;;;;4936944;28;20050;-81
2022/01/14 05:01:31;;;;;;;19.35;10.50;;;14.40;49.10;13.40;103057.00;;;;4938021;28;20133;-81
2022/01/14 05:04:18;;;;;;;;;;;14.40;49.10;13.30;103055.00;;;;4933655;28;20042;-81
2022/01/14 05:07:04;;;;;;;20.48;11.00;;;14.50;49.10;13.40;103042.00;;;;4960704;28;19922;-81
2022/01/14 05:10:07;;;;;;;20.60;10.80;;;14.50;49.00;13.40;103036.00;;;;4931461;28;20407;-81
2022/01/14 05:12:53;;;;;;;22.92;10.80;;;14.50;49.00;13.40;103030.00;;;;4953269;28;20407;-81
2022/01/14 05:15:40;;;;;;;20.65;11.57;;;14.40;49.00;13.40;103021.00;;;;4937514;28;20518;-81
2022/01/14 05:18:26;;;;;;;21.42;12.10;;;14.50;49.00;13.40;103024.00;;;;4934812;28;20050;-81
2022/01/14 05:21:14;;;;;;;20.30;10.82;;;14.40;49.00;13.40;103009.00;;;;4935624;28;20042;-81
2022/01/14 05:24:00;;;;;;;19.15;10.60;;;14.40;49.00;13.40;103027.00;;;;4935234;28;20046;-81
2022/01/14 05:26:46;;;;;;;20.20;11.10;;;14.40;49.10;13.40;103025.00;;;;4942423;28;20054;-81
2022/01/14 05:29:33;;;;;;;22.35;12.20;;;14.40;49.10;13.30;103015.00;;;;4934689;28;20038;-81
2022/01/14 05:32:20;;;;;;;20.23;11.32;;;14.40;49.10;13.40;103023.00;;;;4947723;28;20049;-81
2022/01/14 05:35:07;;;;;;;20.10;10.95;;;14.40;49.10;13.40;103034.00;;;;4936703;28;20066;-81
2022/01/14 05:37:53;;;;;;;20.23;12.18;;;14.40;49.20;13.30;103032.00;;;;4977070;28;20042;-81
2022/01/14 05:40:39;;;;;;;19.45;11.20;;;14.30;49.10;13.30;103021.00;;;;4935659;28;20050;-81
2022/01/14 05:43:26;;;;;;;20.63;11.02;;;14.40;49.20;13.30;103037.00;;;;4957895;28;20042;-81
2022/01/14 05:46:12;;;;;;;18.80;11.15;;;14.30;49.20;13.30;103038.00;;;;4933587;28;20057;-81
2022/01/14 05:48:58;;;;;;;20.08;10.90;;;14.30;49.10;13.30;103025.00;;;;4948322;28;20092;-81
2022/01/14 05:51:45;;;;;;;18.20;10.85;;;14.30;49.20;13.30;103029.00;;;;4933230;28;20460;-81
2022/01/14 05:54:31;;;;;;;18.33;11.00;;;14.30;49.20;13.30;103026.00;;;;4937356;28;20113;-81
2022/01/14 05:57:18;;;;;;;19.77;10.75;;;14.30;49.20;13.30;103026.00;;;;4936240;28;20114;-81
2022/01/14 06:00:12;;;;;;;17.35;9.95;;;14.30;49.20;13.30;103025.00;;;;4946601;28;20422;-81
2022/01/14 06:02:59;;;;;;;18.60;10.60;;;14.30;49.20;13.30;103021.00;;;;4934235;28;20100;-81
2022/01/14 06:05:45;;;;;;;17.10;10.38;;;14.40;49.30;13.30;103025.00;;;;4938573;28;20050;-81
2022/01/14 06:08:31;;;;;;;18.30;10.13;;;14.30;49.20;13.30;103017.00;;;;4936910;28;20672;-81
2022/01/14 06:11:18;;;;;;;17.50;10.13;;;14.30;49.20;13.30;103011.00;;;;4952713;28;20061;-81
2022/01/14 06:14:04;;;;;;;19.38;10.57;;;14.40;49.30;13.30;103022.00;;;;4934830;28;20578;-81
2022/01/14 06:16:51;;;;;;;19.02;9.57;;;14.30;49.20;13.30;103013.00;;;;4935915;28;20068;-81
2022/01/14 06:19:37;;;;;;;21.27;10.27;;;14.30;49.30;13.30;103009.00;;;;4935772;28;20052;-82
2022/01/14 06:22:23;;;;;;;19.48;9.77;;;14.30;49.20;13.30;102997.00;;;;4932718;28;20082;-81
2022/01/14 06:25:10;;;;;;;18.75;10.32;;;14.30;49.30;13.30;102992.00;;;;4939704;28;20042;-81
2022/01/14 06:27:56;;;;;;;20.83;9.75;;;14.30;49.90;13.30;102994.00;;;;4946760;28;20046;-81
2022/01/14 06:30:42;;;;;;;17.88;10.10;;;14.30;49.30;13.30;102999.00;;;;4931120;28;20050;-81
2022/01/14 06:33:28;;;;;;;18.08;9.70;;;14.30;49.30;13.30;103011.00;;;;4949743;28;20055;-82
2022/01/14 06:36:14;;;;;;;19.38;11.15;;;14.30;49.20;13.30;102995.00;;;;4935112;28;20038;-81
2022/01/14 06:39:01;;;;;;;19.35;10.15;;;14.30;49.20;13.30;103005.00;;;;4955181;28;20057;-89
2022/01/14 06:41:47;;;;;;;19.48;10.27;;;14.30;49.30;13.30;102996.00;;;;4934469;28;20043;-89
2022/01/14 06:44:34;;;;;;;19.08;10.20;;;14.30;49.20;13.30;102991.00;;;;4937395;28;20042;-89
2022/01/14 06:47:21;;;;;;;18.90;9.77;;;14.30;49.30;13.30;102987.00;;;;4947095;28;20041;-88
2022/01/14 06:50:08;;;;;;;17.58;10.15;;;14.30;49.30;13.30;102978.00;;;;4948299;28;20045;-88
2022/01/14 06:52:54;;;;;;;19.33;9.52;;;14.30;49.20;13.30;102982.00;;;;4932916;28;20042;-88
2022/01/14 06:55:40;;;;;;;16.63;9.10;;;14.30;49.30;13.30;102977.00;;;;4933892;28;20047;-88
2022/01/14 06:58:27;;;;;;;18.10;9.82;;;14.30;49.30;13.30;102974.00;;;;4933840;28;20077;-89
2022/01/14 07:01:13;;;;;;;17.60;9.13;;;14.30;49.30;13.30;102972.00;;;;4945905;28;20120;-90
2022/01/14 07:03:59;;;;;;;16.52;8.98;;;14.30;49.30;13.30;102962.00;;;;4948328;28;20112;-88
2022/01/14 07:06:45;;;;;;;17.02;9.27;;;14.30;49.30;13.30;102973.00;;;;4931564;28;20042;-88
2022/01/14 07:09:34;;;;;;;17.98;9.57;;;14.30;49.30;13.30;102970.00;;;;4946738;28;20038;-89
2022/01/14 07:12:20;;;;;;;14.98;9.23;;;14.30;49.30;13.30;102977.00;;;;4932983;28;20459;-89
2022/01/14 07:15:12;;;;;;;17.58;9.70;;;14.30;49.30;13.30;102982.00;;;;4933661;28;20133;-89
2022/01/14 07:17:58;;;;;;;18.45;9.10;;;14.30;49.30;13.30;103004.00;;;;4933849;28;20046;-89
2022/01/14 07:20:44;;;;;;;15.93;8.60;;;14.30;49.30;13.30;103007.00;;;;4931876;28;20046;-90
2022/01/14 07:23:30;;;;;;;16.63;9.70;;;14.20;49.30;13.30;103012.00;;;;4934128;28;20050;-89
2022/01/14 07:26:17;;;;;;;18.45;10.25;;;14.30;49.30;13.30;103012.00;;;;4949326;28;20045;-89
2022/01/14 07:29:03;;;;;;;15.73;9.75;;;14.20;49.30;13.30;103029.00;;;;4935183;28;20038;-89
2022/01/14 07:31:51;;;;;;;15.90;9.07;;;14.30;49.30;13.30;103032.00;;;;4931390;28;20066;-89
2022/01/14 07:34:52;;;;;;;19.58;9.07;;;14.20;49.40;13.30;103032.00;;;;4963529;28;20454;-90
2022/01/14 07:37:39;;;;;;;17.58;8.70;;;14.30;49.40;13.30;103059.00;;;;4933688;28;20556;-90
2022/01/14 07:40:25;;;;;;;15.98;8.98;;;14.30;49.40;13.30;103051.00;;;;4947162;28;20046;-89
2022/01/14 07:43:11;;;;;;;19.92;9.32;;;14.30;49.40;13.30;103047.00;;;;4946387;28;20049;-90
2022/01/14 07:45:58;;;;;;;14.98;9.13;;;14.30;49.40;13.30;103053.00;;;;4934321;28;20046;-90
2022/01/14 07:48:44;;;;;;;17.77;9.90;;;14.30;49.40;13.40;103062.00;;;;4936321;28;20077;-89
2022/01/14 07:51:30;;;;;;;17.73;9.63;;;14.30;49.40;13.40;103065.00;;;;4946307;28;20047;-89
2022/01/14 07:54:17;;;;;;;16.10;8.65;;;14.30;49.40;13.40;103070.00;;;;4933353;28;20038;-89
2022/01/14 07:57:04;;;;;;;16.92;9.25;;;14.30;49.40;13.40;103067.00;;;;4931105;28;20061;-90
2022/01/14 07:59:50;;;;;;;19.73;9.45;;;14.40;49.40;13.40;103068.00;;;;4948764;28;20082;-89
2022/01/14 08:02:37;;;;;;;15.93;9.25;;;14.40;49.40;13.40;103060.00;;;;4946302;28;20459;-90
2022/01/14 08:05:23;;;;;;;15.13;9.05;;;14.40;49.40;13.40;103066.00;;;;4944385;28;20096;-89
2022/01/14 08:08:09;;;;;;;15.68;9.02;;;14.40;49.40;13.40;103074.00;;;;4945082;28;20092;-90
2022/01/14 08:10:56;;;;;;;18.65;10.18;;;14.40;49.30;13.40;103065.00;;;;4934334;28;20108;-89
2022/01/14 08:13:42;;;;;;;18.13;9.32;;;14.40;49.30;13.40;103061.00;;;;4926027;28;20476;-89
2022/01/14 08:16:28;;;;;;;18.00;9.77;;;14.40;49.30;13.40;103059.00;;;;4934099;28;20050;-89
2022/01/14 08:19:14;;;;;;;18.83;9.98;;;14.40;49.30;13.40;103061.00;;;;4947223;28;20041;-89
2022/01/14 08:22:05;;;;;;;16.73;9.40;;;14.40;49.30;13.40;103076.00;;;;4946914;28;20054;-90
2022/01/14 08:24:51;;;;;;;16.80;8.77;;;14.40;49.40;13.40;103072.00;;;;4933816;28;20047;-90
2022/01/14 08:27:37;;;;;;;18.00;9.60;;;14.40;49.30;13.40;103076.00;;;;4944498;28;20043;-89
2022/01/14 08:30:24;;;;;;;16.33;9.95;;;14.40;49.40;13.40;103063.00;;;;4932753;28;20042;-90
2022/01/14 08:33:12;;;;;;;16.27;8.95;;;14.40;49.30;13.40;103068.00;;;;4934464;28;20042;-89
2022/01/14 08:35:58;;;;;;;;;;;14.40;49.30;13.40;103076.00;;;;4944668;28;20057;-90
2022/01/14 08:38:44;;;;;;;19.00;9.43;;;14.40;49.30;13.40;103075.00;;;;4942981;28;20290;-89
2022/01/14 08:41:31;;;;;;;17.60;9.18;;;14.50;49.20;13.40;103067.00;;;;4931696;28;20038;-89
2022/01/14 08:44:17;;;;;;;19.30;9.88;;;14.40;49.30;13.40;103078.00;;;;4937358;28;20042;-89
2022/01/14 08:47:09;;;;;;;14.70;9.13;;;14.40;49.30;13.40;103077.00;;;;4931951;28;20077;-89
2022/01/14 08:49:56;;;;;;;17.88;9.32;;;14.40;49.40;13.40;103088.00;;;;4944947;28;20050;-90
2022/01/14 08:52:42;;;;;;;19.48;9.80;;;14.40;49.40;13.40;103089.00;;;;4937060;28;20042;-89
2022/01/14 08:55:28;;;;;;;20.02;9.77;;;14.40;49.40;13.40;103084.00;;;;4949533;28;20046;-89
2022/01/14 08:58:14;;;;;;;19.13;9.27;;;14.40;49.40;13.40;103082.00;;;;4938543;28;20046;-89
2022/01/14 09:01:01;;;;;;;21.30;10.20;;;14.40;49.40;13.40;103090.00;;;;4951556;28;20557;-90
2022/01/14 09:03:48;;;;;;;17.13;9.60;;;14.40;49.40;13.40;103080.00;;;;4935176;28;20097;-89
2022/01/14 09:06:34;;;;;;;17.05;9.50;;;14.30;49.40;13.40;103094.00;;;;4937067;28;20129;-89
2022/01/14 09:09:20;;;;;;;20.35;10.85;;;14.30;49.40;13.40;103089.00;;;;4976418;28;20092;-89
2022/01/14 09:12:08;;;;;;;18.98;10.75;;;14.30;49.50;13.40;103097.00;;;;4950359;28;20041;-89
2022/01/14 09:14:55;;;;;;;20.67;10.55;;;14.30;49.50;13.40;103100.00;;;;4937048;28;20920;-90
2022/01/14 09:17:42;;;;;;;15.57;9.63;;;14.30;49.50;13.40;103098.00;;;;4948894;28;20049;-89
2022/01/14 09:20:28;;;;;;;19.27;10.23;;;14.30;49.50;13.40;103093.00;;;;4936658;28;20132;-89
2022/01/14 09:23:17;;;;;;;17.58;9.73;;;14.40;49.60;13.40;103091.00;;;;4935159;28;20035;-89
2022/01/14 09:26:04;;;;;;;19.38;10.00;;;14.40;49.60;13.40;103094.00;;;;4952024;28;21600;-90
2022/01/14 09:28:50;;;;;;;18.25;9.60;;;14.40;49.60;13.40;103087.00;;;;4930139;28;20158;-90
2022/01/14 09:31:36;;;;;;;18.95;9.95;;;14.40;49.60;13.40;103080.00;;;;4938129;28;20085;-89
2022/01/14 09:34:25;;;;;;;17.95;9.48;;;14.40;49.60;13.40;103090.00;;;;4932254;28;20057;-89
2022/01/14 09:37:12;;;;;;;18.75;9.88;;;14.40;49.60;13.50;103095.00;;;;4949541;28;20524;-89
2022/01/14 09:39:59;;;;;;;18.48;9.95;;;14.40;49.60;13.40;103093.00;;;;4946290;28;20105;-89
2022/01/14 09:42:49;;;;;;;20.60;10.23;;;14.40;49.50;13.50;103094.00;;;;4938956;28;20049;-90
2022/01/14 09:45:35;;;;;;;18.52;9.40;;;14.50;49.60;13.50;103106.00;;;;4933708;28;20050;-89
2022/01/14 09:48:21;;;;;;;18.45;9.75;;;14.50;49.50;13.50;103106.00;;;;4948545;28;20054;-89
2022/01/14 09:51:08;;;;;;;19.55;10.60;;;14.50;49.60;13.50;103104.00;;;;4944619;28;20038;-89
2022/01/14 09:53:54;;;;;;;17.35;9.07;;;14.40;49.50;13.50;103100.00;;;;4934018;28;20050;-89
2022/01/14 09:56:41;;;;;;;17.52;9.25;;;14.50;49.60;13.50;103104.00;;;;4948796;28;20042;-89
2022/01/14 09:59:28;;;;;;;17.63;10.00;;;14.40;49.50;13.50;103102.00;;;;4933432;28;20514;-89
2022/01/14 10:02:47;;;;;;;19.30;9.57;;;14.50;49.60;13.50;103102.00;;;;4946851;28;20124;-89
2022/01/14 10:05:38;;;;;;;17.77;9.43;;;14.40;49.50;13.40;103119.00;;;;4919922;28;20045;-89
2022/01/14 10:08:28;;;;;;;17.45;9.63;;;14.50;49.50;13.40;103111.00;;;;4935623;28;20510;-89
2022/01/14 10:11:14;;;;;;;16.88;9.40;;;14.50;49.50;13.50;103121.00;;;;4936578;28;20038;-88
2022/01/14 10:14:06;;;;;;;18.70;9.90;;;14.50;49.60;13.50;103113.00;;;;4936249;28;20117;-89
2022/01/14 10:16:54;;;;;;;22.48;10.65;;;14.40;49.60;13.40;103114.00;;;;4935741;28;20034;-89
2022/01/14 10:19:42;;;;;;;17.70;9.98;;;14.40;49.60;13.40;103112.00;;;;4933374;28;20046;-89
2022/01/14 10:22:33;;;;;;;19.45;10.35;;;14.40;49.60;13.40;103113.00;;;;4935380;28;20049;-90
2022/01/14 10:25:20;;;;;;;21.02;9.98;;;14.40;49.60;13.40;103087.00;;;;4961140;28;20038;-89
2022/01/14 10:28:27;;;;;;;17.35;9.57;;;14.40;49.60;13.40;103090.00;;;;4935279;28;20039;-89
2022/01/14 10:31:13;;;;;;;18.23;9.38;;;14.40;49.70;13.50;103100.00;;;;4960189;28;20555;-89
2022/01/14 10:34:14;;;;;;;18.42;9.63;;;14.40;49.60;13.40;103082.00;;;;4935684;28;20082;-88
2022/01/14 10:37:09;;;;;;;17.80;9.25;;;14.40;49.70;13.50;103091.00;;;;4948323;28;20038;-89
2022/01/14 10:39:56;;;;;;;18.70;9.90;;;14.40;49.70;13.50;103089.00;;;;4948636;28;20038;-89
2022/01/14 10:42:42;;;;;;;17.83;9.52;;;14.50;49.70;13.50;103082.00;;;;4945529;28;20048;-89
2022/01/14 10:45:29;;;;;;;17.42;10.00;;;14.40;50.30;13.50;103081.00;;;;4948740;28;20387;-89
2022/01/14 10:48:18;;;;;;;17.38;10.40;;;14.50;49.80;13.50;103083.00;;;;4934242;28;20038;-89
2022/01/14 10:51:10;;;;;;;16.48;9.88;;;14.50;49.80;13.50;103083.00;;;;4965780;28;20086;-89
2022/01/14 10:53:56;;;;;;;19.20;9.77;;;14.50;49.80;13.50;103077.00;;;;4957757;28;20034;-89
2022/01/14 10:56:42;;;;;;;21.15;10.75;;;14.50;49.80;13.50;103083.00;;;;4925368;28;20049;-89
2022/01/14 10:59:29;;;;;;;19.40;10.70;;;14.50;49.80;13.50;103070.00;;;;4935769;28;20046;-89
2022/01/14 11:02:42;;;;;;;17.98;10.25;;;14.50;49.80;13.50;103081.00;;;;4930973;28;20042;-89
2022/01/14 11:05:28;;;;;;;19.20;10.25;;;14.50;49.80;13.50;103076.00;;;;4957264;28;20043;-89
2022/01/14 11:08:14;;;;;;;17.17;10.07;;;14.50;49.80;13.50;103066.00;;;;4934817;28;20113;-89
2022/01/14 11:11:01;;;;;;;21.73;10.95;;;14.50;50.00;13.50;103075.00;;;;4947121;28;20042;-90
2022/01/14 11:13:47;;;;;;;19.35;10.48;;;14.50;49.80;13.50;103080.00;;;;4926382;28;20038;-89
2022/01/14 11:16:34;;;;;;;20.80;10.75;;;14.50;49.80;13.50;103080.00;;;;4947425;28;20510;-89
2022/01/14 11:19:21;;;;;;;21.30;10.43;;;14.50;49.80;13.50;103084.00;;;;4948425;28;20096;-89
2022/01/14 11:25:12;;;;;;;17.70;10.43;;;14.50;49.80;13.50;103072.00;;;;4966722;28;20066;-88
2022/01/14 11:27:59;;;;;;;19.10;10.98;;;14.50;49.80;13.50;103078.00;;;;4933212;28;20035;-89
2022/01/14 11:30:45;;;;;;;20.13;10.32;;;14.50;49.80;13.50;103077.00;;;;4948227;28;20549;-89
2022/01/14 11:33:42;;;;;;;18.20;10.20;;;14.50;49.80;13.50;103079.00;;;;4943759;28;20813;-89
2022/01/14 11:36:57;;;;;;;17.70;9.80;;;14.50;49.90;13.50;103075.00;;;;4947683;28;20125;-89
2022/01/14 11:40:06;;;;;;;15.70;9.13;;;14.50;49.90;13.50;103081.00;;;;4966921;28;20048;-89
2022/01/14 11:43:03;;;;;;;18.30;10.77;;;14.50;49.90;13.50;103080.00;;;;4959737;28;20053;-88
2022/01/14 11:45:53;;;;;;;19.20;9.88;;;14.50;49.90;13.50;103082.00;;;;4944305;28;20039;-91
2022/01/14 11:48:49;;;;;;;17.92;9.98;;;14.50;49.90;13.50;103079.00;;;;4955456;28;20042;-88
2022/01/14 11:51:35;;;;;;;18.15;9.80;;;14.50;49.90;13.50;103078.00;;;;4937367;28;20042;-88
2022/01/14 11:54:25;;;;;;;18.60;10.63;;;14.50;49.90;13.50;103078.00;;;;4934806;28;20073;-88
2022/01/14 11:57:39;;;;;;;19.63;10.52;;;14.50;49.90;13.50;103085.00;;;;4946860;28;20042;-88
2022/01/14 12:00:40;;;;;;;18.40;9.88;;;14.50;50.00;13.50;103075.00;;;;4937591;28;20043;-88
2022/01/14 12:03:28;;;;;;;17.60;10.07;;;14.50;50.00;13.50;103082.00;;;;4985024;28;20058;-88
2022/01/14 12:06:14;;;;;;;15.30;9.95;;;14.50;50.00;13.50;103073.00;;;;4934679;28;20046;-88
2022/01/14 12:09:04;;;;;;;17.38;10.52;;;14.50;50.00;13.50;103068.00;;;;4946463;28;20125;-88
2022/01/14 12:12:33;;;;;;;18.42;10.95;;;14.50;50.00;13.50;103065.00;;;;4927583;28;20121;-87
2022/01/14 12:15:59;;;;;;;16.52;10.50;;;14.50;50.00;13.50;103050.00;;;;4954493;28;20681;-88
2022/01/14 12:18:57;;;;;;;18.33;9.85;;;14.50;50.00;13.50;103062.00;;;;4958597;28;20047;-88
2022/01/14 12:21:50;;;;;;;19.05;9.85;;;14.50;50.00;13.50;103062.00;;;;4965070;28;20043;-88
2022/01/14 12:24:37;;;;;;;19.63;11.02;;;14.50;50.00;13.50;103069.00;;;;4990010;28;20050;-88
2022/01/14 12:27:25;;;;;;;18.90;10.85;;;14.50;50.00;13.50;103069.00;;;;4937718;28;20089;-88
2022/01/14 12:30:31;;;;;;;16.08;9.45;;;14.50;50.00;13.50;103075.00;;;;4939251;28;20042;-88
2022/01/14 12:33:48;;;;;;;17.23;9.77;;;14.50;50.10;13.50;103081.00;;;;4962851;28;20038;-88